AirNav   ProFlight Series 2 Aviation Headset
 
 994 users online  

44PN Sports Complex of Honesdale Heliport
Honesdale, Pennsylvania, USA

GOING TO HONESDALE?


FAA INFORMATION EFFECTIVE 18 JUNE 2020

Location

FAA Identifier: 44PN
Lat/Long: 41-33-38.2300N 075-15-56.0700W
41-33.637167N 075-15.934500W
41.5606194,-75.2655750
(estimated)
Elevation: 1361 ft. / 415 m (estimated)
Variation: 12W (2010)
From city: 1 mile NE of HONESDALE, PA
Time zone: UTC -4 (UTC -5 during Standard Time)
Zip code: 18431

Heliport Operations

Heliport use: Private use, MEDICAL.
Activation date: 02/2007
Control tower: no
ARTCC: NEW YORK CENTER
FSS: WILLIAMSPORT FLIGHT SERVICE STATION
NOTAMs facility: FDC (NOTAM-D service not available)
Attendance: UNATNDD
Wind indicator: yes
Segmented circle: no

Nearby radio navigation aids

VOR radial/distance  VOR name  Freq  Var
LVZr058/25.7WILKES-BARRE VORTAC111.6010W
HNKr187/30.2HANCOCK VOR/DME116.8011W
HUOr298/31.6HUGUENOT VOR/DME116.1011W
STWr343/38.3STILLWATER VOR/DME109.6011W
DNYr211/39.5DELANCEY VOR/DME112.1011W

Heliport Services

Runway Information

Helipad H1

Dimensions: 50 x 50 ft. / 15 x 15 m
Surface: asphalt
Latitude: 41-33.637167N
Longitude: 075-15.934500W
Elevation: 1361.0 ft.
Traffic pattern: leftleft

Heliport Ownership and Management from official FAA records

Ownership: Privately-owned
Owner: HOSPITAL ADMINISTRATOR
601 PARK STREET
HONESDALE, PA 18431
Phone 570-253-8100
Manager: WAYNE MEMORIAL HOSPITAL
601 PARK STREET
HONESDALE, PA 18431
Phone 570-253-8100

Additional Remarks

A50-H1 NUMBEROUS TWRS ALL DIRECTIONS.
FOR CD CTC WILKES-BARRE APCH AT 570-655-2084.

Instrument Procedures

There are no published instrument procedures at 44PN.

Some nearby airports with instrument procedures:

N30 - Cherry Ridge Airport (3 nm S)
70N - Spring Hill Airport (14 nm SW)
9N3 - Seamans Field Airport (22 nm W)
KMSV - Sullivan County International Airport (23 nm E)
KAVP - Wilkes-Barre/Scranton International Airport (25 nm SW)
 
Loc | Ops | Rwys | IFR | FBO | Links
Com | Nav | Svcs | Stats | Notes
Area around 44PN (Sports Complex of Honesdale Heliport)
 
Road maps at: MapQuest Bing Google
 
Aerial photo
No photo
 
Sectional chart

 
Airport distance calculator
Flying to Sports Complex of Honesdale Heliport? Find the distance to fly.

From to 44PN

Sunrise and sunset
Times for 06-Jul-2020
 Local
(UTC-4)
 Zulu
(UTC)
Morning civil twilight05:0209:02
Sunrise05:3509:35
Sunset20:3700:37
Evening civil twilight21:1001:10

Current date and time
Zulu (UTC)  07-Jul-2020 01:15:58
Local (UTC-4)  06-Jul-2020 21:15:58
 
METAR
KMSV 
23nm E 
070056Z AUTO 07005KT 10SM CLR 19/18 A3012 RMK AO2 RAE27 SLP190 P0000 T01890183
KAVP 
25nm SW 
070054Z VRB05KT 10SM CLR 25/18 A3005 RMK AO2 SLP164 T02500178 $
KMPO 
26nm S 
070053Z AUTO 10006KT 10SM CLR 19/16 A3013 RMK AO2 SLP190 T01890161 $
KFWN 
36nm SE 
070053Z AUTO 00000KT 10SM -RA FEW065 FEW090 SCT120 23/18 A3005 RMK AO2 RAB14 SLP173 P0001 T02330178
K12N 
41nm SE 
070054Z AUTO 21003KT 23/17 A3008 RMK AO1 SLP176 T02330172
KMGJ 
45nm E 
SuperAWOS
070054Z AUTO 13006KT 10SM FEW055 SCT070 BKN110 21/20 A3007 RMK AO2 RAB2359E53 SLP180 P0000 T02110200
TAF
KAVP 
25nm SW 
061751Z 0618/0718 VRB05KT P6SM BKN070 TEMPO 0620/0622 4SM TSRA BR BKN035CB FM070000 VRB03KT P6SM SCT060 FM070800 VRB03KT P6SM BKN015 FM071000 VRB03KT 5SM BR BKN008 FM071400 20005KT P6SM BKN015
NOTAMs
Click for the latest NOTAMs
NOTAMs are issued by the DoD/FAA and will open in a separate window not controlled by AirNav.

 

 
 

Would you like to see your business listed on this page?

 If your business provides an interesting product or service to pilots, flight crews, aircraft, or users of the Sports Complex of Honesdale Heliport, you should consider listing it here.  To start the listing process, click on the button below
 
Add a business
 

Other Pages about Sports Complex of Honesdale Heliport

Update a link
 
Copyright © AirNav, LLC. All rights reserved. Privacy Policy  Contact